Time;durP1;ratioP1;P1;durP2;ratioP2;P2;SDS_P1;SDS_P2;PMS_P1;PMS_P2;Temp;Humidity;BMP_temperature;BMP_pressure;BME280_temperature;BME280_humidity;BME280_pressure;Samples;Min_cycle;Max_cycle;Signal;HPM_P1;HPM_P2
2022/09/05 00:02:36;;;;;;;2.08;1.20;;;19.90;99.90;;;20.36;100.00;101330.13;5214597;28;20047;-75
2022/09/05 00:05:42;;;;;;;1.50;1.27;;;19.90;99.90;;;20.30;100.00;101326.56;5224593;28;20564;-75
2022/09/05 00:08:26;;;;;;;3.13;1.60;;;19.80;99.90;;;20.24;100.00;101328.31;5220564;28;20049;-76
2022/09/05 00:11:10;;;;;;;1.75;1.25;;;19.80;99.90;;;20.20;100.00;101337.13;5224154;28;20563;-74
2022/09/05 00:13:48;;;;;;;2.20;1.30;;;19.70;99.90;;;20.15;100.00;101331.81;5224202;28;20098;-75
2022/09/05 00:16:46;;;;;;;1.60;1.20;;;19.70;99.90;;;20.11;100.00;101326.50;5224863;28;20124;-74
2022/09/05 00:19:33;;;;;;;1.30;1.10;;;19.70;99.90;;;20.09;100.00;101323.84;5223916;28;20095;-76
2022/09/05 00:22:24;;;;;;;2.78;1.50;;;19.60;99.90;;;20.10;100.00;101330.03;5225395;28;20139;-74
2022/09/05 00:25:19;;;;;;;1.50;1.23;;;19.60;99.90;;;20.09;100.00;101329.16;5224215;28;20075;-75
2022/09/05 00:27:58;;;;;;;2.30;1.60;;;19.60;99.90;;;20.09;100.00;101323.84;5225356;28;20143;-75
2022/09/05 00:30:42;;;;;;;1.33;1.23;;;19.60;99.90;;;20.07;100.00;101322.94;5225709;28;20136;-74
2022/09/05 00:33:27;;;;;;;1.83;1.45;;;19.60;99.90;;;20.07;100.00;101325.59;5224809;28;20505;-74
2022/09/05 00:36:22;;;;;;;1.30;1.20;;;19.60;99.90;;;20.06;100.00;101323.81;5223973;28;20067;-74
2022/09/05 00:39:04;;;;;;;1.85;1.65;;;19.60;99.90;;;20.05;100.00;101314.13;5225633;28;20045;-74
2022/09/05 00:41:37;;;;;;;1.85;1.50;;;19.60;99.90;;;20.05;100.00;101317.66;5226078;28;20049;-74
2022/09/05 00:44:11;;;;;;;1.90;1.45;;;19.60;99.90;;;20.04;100.00;101315.88;5224184;28;20122;-75
2022/09/05 00:46:52;;;;;;;2.15;1.23;;;19.60;99.90;;;20.03;100.00;101315.88;5224613;28;20533;-74
2022/09/05 00:49:31;;;;;;;1.77;1.50;;;19.60;99.90;;;20.03;100.00;101318.53;5224201;28;20041;-74
2022/09/05 00:52:10;;;;;;;1.83;1.50;;;19.60;99.90;;;20.01;100.00;101320.25;5224264;28;20144;-75
2022/09/05 00:55:14;;;;;;;1.55;1.20;;;19.60;99.90;;;20.01;100.00;101314.97;5225235;28;20412;-74
2022/09/05 00:58:08;;;;;;;2.03;1.30;;;19.50;99.90;;;19.99;100.00;101316.75;5224021;28;20062;-74
2022/09/05 01:00:53;;;;;;;1.52;1.13;;;19.50;99.90;;;19.97;100.00;101319.38;5240155;28;20056;-75
2022/09/05 01:03:46;;;;;;;1.55;1.25;;;19.50;99.90;;;19.96;100.00;101317.63;5224480;28;20049;-75
2022/09/05 01:06:34;;;;;;;1.70;1.50;;;19.50;99.90;;;19.95;100.00;101321.16;5224776;28;20047;-74
2022/09/05 01:09:25;;;;;;;2.75;1.60;;;19.50;99.90;;;19.94;100.00;101318.47;5225267;28;20570;-75
2022/09/05 01:12:13;;;;;;;2.15;1.35;;;19.50;99.90;;;19.94;100.00;101318.47;5225000;28;20073;-75
2022/09/05 01:15:09;;;;;;;1.60;1.30;;;19.50;99.90;;;19.94;100.00;101323.75;5225932;28;20516;-75
2022/09/05 01:18:15;;;;;;;2.33;1.42;;;19.50;99.90;;;19.93;100.00;101320.25;5226620;28;20183;-74
2022/09/05 01:21:09;;;;;;;1.80;1.42;;;19.50;99.90;;;19.94;100.00;101323.75;5228581;28;20753;-75
2022/09/05 01:24:19;;;;;;;1.63;1.52;;;19.50;99.90;;;19.94;100.00;101323.75;5227494;28;20052;-76
2022/09/05 01:27:36;;;;;;;1.75;1.40;;;19.50;99.90;;;19.95;100.00;101325.53;5226718;28;20151;-74
2022/09/05 01:30:14;;;;;;;1.98;1.40;;;19.50;99.90;;;19.92;100.00;101318.47;5228609;28;20132;-75
2022/09/05 01:32:55;;;;;;;1.75;1.27;;;19.50;99.90;;;19.90;100.00;101317.59;5228066;28;20044;-74
2022/09/05 01:35:54;;;;;;;1.50;1.40;;;19.40;99.90;;;19.88;100.00;101331.66;5227026;28;20110;-74
2022/09/05 01:38:37;;;;;;;2.28;1.50;;;19.40;99.90;;;19.83;100.00;101325.50;5227288;28;20048;-74
2022/09/05 01:41:22;;;;;;;2.28;1.50;;;19.40;99.90;;;19.78;100.00;101329.00;5227090;28;20056;-77
2022/09/05 01:44:35;;;;;;;1.67;1.48;;;19.40;99.90;;;19.74;100.00;101335.13;5228300;28;20382;-74
2022/09/05 01:47:25;;;;;;;1.90;1.20;;;19.30;99.90;;;19.69;100.00;101325.38;5214362;28;20521;-75
2022/09/05 01:50:09;;;;;;;2.45;1.40;;;19.20;99.90;;;19.63;100.00;101318.34;5221361;28;20045;-74
2022/09/05 01:52:58;;;;;;;1.75;1.63;;;19.20;99.90;;;19.57;100.00;101323.56;5226631;28;20055;-74
2022/09/05 01:56:03;;;;;;;2.95;1.48;;;19.20;99.90;;;19.50;100.00;101313.81;5227917;28;20545;-74
2022/09/05 01:59:04;;;;;;;1.83;1.45;;;19.10;99.90;;;19.45;100.00;101315.53;5228105;28;20056;-74
2022/09/05 02:02:04;;;;;;;1.98;1.38;;;19.10;99.90;;;19.40;100.00;101319.91;5227707;28;20051;-74
2022/09/05 02:05:14;;;;;;;2.08;1.48;;;19.00;99.90;;;19.34;100.00;101322.50;5228250;28;20102;-75
2022/09/05 02:08:09;;;;;;;1.92;1.42;;;19.00;99.90;;;19.29;100.00;101321.56;5226304;28;20049;-75
2022/09/05 02:11:01;;;;;;;1.58;1.30;;;18.90;99.90;;;19.24;100.00;101325.09;5226548;28;20049;-75
2022/09/05 02:13:58;;;;;;;1.30;1.20;;;18.90;99.90;;;19.20;100.00;101327.69;5226505;28;20076;-74
2022/09/05 02:16:42;;;;;;;1.25;1.13;;;18.80;99.90;;;19.16;100.00;101326.75;5226524;28;20047;-74
2022/09/05 02:19:23;;;;;;;1.60;1.27;;;18.80;99.90;;;19.14;100.00;101323.22;5227673;28;20047;-75
2022/09/05 02:22:06;;;;;;;1.70;1.60;;;18.80;99.90;;;19.12;100.00;101326.75;5207065;28;20053;-75
2022/09/05 02:24:45;;;;;;;2.75;1.50;;;18.70;99.90;;;19.09;100.00;101324.94;5205356;28;20111;-75
2022/09/05 02:27:27;;;;;;;2.33;1.33;;;18.70;99.90;;;19.08;100.00;101315.25;5206110;28;20052;-74
2022/09/05 02:30:08;;;;;;;1.77;1.40;;;18.70;99.90;;;19.09;100.00;101314.38;5205412;28;20076;-75
2022/09/05 02:32:48;;;;;;;;;;;18.70;99.90;;;19.09;100.00;101309.09;5207695;28;20057;-74
2022/09/05 02:35:26;;;;;;;;;;;18.70;99.90;;;19.08;100.00;101315.25;5205979;28;19925;-74
2022/09/05 02:38:10;;;;;;;2.20;1.60;;;18.70;99.90;;;19.07;100.00;101316.13;5204975;28;19924;-75
2022/09/05 02:40:48;;;;;;;1.80;1.52;;;18.70;99.90;;;19.06;100.00;101319.66;5206879;28;20097;-74
2022/09/05 02:43:33;;;;;;;2.47;1.48;;;18.70;99.90;;;19.04;100.00;101320.47;5204902;28;20094;-77
2022/09/05 02:46:12;;;;;;;2.83;1.75;;;18.60;99.90;;;18.98;100.00;101316.94;5205933;28;20041;-75
2022/09/05 02:48:54;;;;;;;1.90;1.50;;;18.60;99.90;;;18.94;100.00;101317.78;5205124;28;20526;-74
2022/09/05 02:51:33;;;;;;;2.17;1.50;;;18.60;99.90;;;18.88;100.00;101324.75;5205062;28;20059;-75
2022/09/05 02:54:13;;;;;;;2.53;1.63;;;18.50;99.90;;;18.83;100.00;101326.47;5206607;28;20068;-75
2022/09/05 02:56:56;;;;;;;1.77;1.63;;;18.50;99.90;;;18.78;100.00;101326.44;5204776;28;20077;-74
2022/09/05 02:59:46;;;;;;;1.60;1.50;;;18.40;99.90;;;18.73;100.00;101325.50;5205851;28;20052;-75
2022/09/05 03:02:29;;;;;;;2.80;1.65;;;18.40;99.90;;;18.68;100.00;101333.38;5221229;28;20049;-75
2022/09/05 03:05:09;;;;;;;2.08;1.60;;;18.30;99.90;;;18.67;100.00;101326.31;5206203;28;20054;-75
2022/09/05 03:08:20;;;;;;;1.63;1.33;;;18.30;99.90;;;18.63;100.00;101332.41;5220901;28;20049;-75
2022/09/05 03:11:44;;;;;;;1.60;1.38;;;18.30;99.90;;;18.58;100.00;101330.59;5204323;28;20144;-74
2022/09/05 03:15:01;;;;;;;2.90;1.77;;;18.20;99.90;;;18.55;100.00;101331.44;5204761;28;20049;-74
2022/09/05 03:17:56;;;;;;;3.47;2.10;;;18.20;99.90;;;18.52;100.00;101326.16;5205530;28;20048;-75
2022/09/05 03:21:17;;;;;;;3.22;1.70;;;18.20;99.90;;;18.49;100.00;101331.38;5204267;28;20058;-74
2022/09/05 03:24:52;;;;;;;2.90;1.92;;;18.10;99.90;;;18.46;100.00;101330.47;5205479;28;20413;-75
2022/09/05 03:28:19;;;;;;;2.33;1.80;;;18.10;99.90;;;18.43;100.00;101333.94;5198688;28;20046;-74
2022/09/05 03:31:23;;;;;;;2.42;1.80;;;18.10;99.90;;;18.39;100.00;101329.53;5184816;28;20149;-75
2022/09/05 03:34:48;;;;;;;2.35;1.60;;;18.10;99.90;;;18.35;100.00;101338.25;5203919;28;20053;-75
2022/09/05 03:37:54;;;;;;;2.17;1.60;;;18.00;99.90;;;18.30;100.00;101330.28;5166436;28;20090;-75
2022/09/05 03:40:52;;;;;;;1.98;1.63;;;18.00;99.90;;;18.27;100.00;101334.66;5205673;28;20037;-75
2022/09/05 03:43:44;;;;;;;2.88;1.73;;;17.90;99.90;;;18.26;100.00;101339.06;5203828;28;20042;-75
2022/09/05 03:46:52;;;;;;;2.50;1.70;;;17.90;99.90;;;18.24;100.00;101339.88;5204923;28;20517;-74
2022/09/05 03:50:02;;;;;;;2.28;1.60;;;17.90;99.90;;;18.23;100.00;101343.38;5179069;28;20140;-75
2022/09/05 03:52:51;;;;;;;2.10;1.52;;;17.80;99.90;;;18.21;100.00;101340.75;5204958;28;20115;-75
2022/09/05 03:55:49;;;;;;;2.38;1.60;;;17.80;99.90;;;18.21;100.00;101340.75;5205323;28;20037;-74
2022/09/05 03:58:55;;;;;;;2.13;1.73;;;17.80;99.90;;;18.24;100.00;101340.75;5203901;28;20092;-74
2022/09/05 04:01:34;;;;;;;1.80;1.60;;;17.90;99.90;;;18.25;100.00;101331.97;5205306;28;20056;-74
2022/09/05 04:04:20;;;;;;;2.63;1.50;;;17.90;99.90;;;18.28;100.00;101331.16;5203681;28;20041;-75
2022/09/05 04:06:59;;;;;;;2.13;1.45;;;17.90;99.90;;;18.28;100.00;101331.16;5204702;28;20049;-75
2022/09/05 04:09:40;;;;;;;2.33;1.65;;;17.90;99.90;;;18.30;100.00;101339.97;5203482;28;20053;-75
2022/09/05 04:12:18;;;;;;;3.40;1.70;;;17.90;99.90;;;18.31;100.00;101342.59;5205036;28;20559;-75
2022/09/05 04:14:55;;;;;;;2.38;1.70;;;17.90;99.90;;;18.31;100.00;101341.72;5204953;28;20069;-74
2022/09/05 04:17:36;;;;;;;2.25;1.67;;;17.90;99.90;;;18.27;100.00;101342.56;5203287;28;20498;-74
2022/09/05 04:20:16;;;;;;;2.60;1.75;;;17.90;99.90;;;18.24;100.00;101334.59;5204940;28;20049;-74
2022/09/05 04:23:14;;;;;;;1.95;1.45;;;17.90;99.90;;;18.20;100.00;101341.63;5204727;28;20065;-74
2022/09/05 04:26:01;;;;;;;2.35;1.73;;;17.80;99.90;;;18.17;100.00;101334.53;5203202;28;20136;-75
2022/09/05 04:28:51;;;;;;;2.40;1.60;;;17.80;99.90;;;18.13;100.00;101338.00;5203357;28;20053;-75
2022/09/05 04:31:37;;;;;;;2.30;1.60;;;17.80;99.90;;;18.09;100.00;101346.75;5204858;28;20049;-75
2022/09/05 04:34:26;;;;;;;2.50;1.85;;;17.70;99.90;;;18.06;100.00;101344.09;5204340;28;20065;-73
2022/09/05 04:37:03;;;;;;;3.25;1.73;;;17.70;99.90;;;18.02;100.00;101344.91;5204300;28;20143;-75
2022/09/05 04:39:36;;;;;;;2.95;2.30;;;17.70;99.90;;;18.00;100.00;101346.63;5204111;28;20044;-74
2022/09/05 04:42:21;;;;;;;2.38;1.70;;;17.60;99.90;;;17.98;100.00;101348.34;5204837;28;20410;-75
2022/09/05 04:45:00;;;;;;;1.98;1.63;;;17.60;99.90;;;17.97;100.00;101356.25;5204118;28;20041;-74
2022/09/05 04:47:39;;;;;;;2.50;1.55;;;17.60;99.90;;;17.95;100.00;101355.34;5219541;28;20164;-75
2022/09/05 04:50:17;;;;;;;5.00;2.05;;;17.60;99.90;;;17.94;100.00;101351.84;5207564;28;20045;-75
2022/09/05 04:53:15;;;;;;;2.17;1.65;;;17.60;99.90;;;17.93;100.00;101355.34;5223156;28;20132;-74
2022/09/05 04:55:50;;;;;;;3.00;1.92;;;17.60;99.90;;;17.92;100.00;101361.44;5207203;28;20054;-74
2022/09/05 04:58:31;;;;;;;2.67;1.88;;;17.60;99.90;;;17.89;100.00;101351.75;5208489;28;20518;-74
2022/09/05 05:01:08;;;;;;;2.97;1.70;;;17.50;99.90;;;17.87;100.00;101363.16;5225597;28;20049;-75
2022/09/05 05:03:41;;;;;;;3.20;1.92;;;17.50;99.90;;;17.85;100.00;101356.97;5208407;28;20678;-75
2022/09/05 05:06:25;;;;;;;2.40;1.58;;;17.50;99.90;;;17.83;100.00;101358.69;5223537;28;20529;-74
2022/09/05 05:09:08;;;;;;;2.38;1.45;;;17.50;99.90;;;17.81;100.00;101368.34;5208228;28;20128;-75
2022/09/05 05:11:51;;;;;;;3.30;2.00;;;17.50;99.90;;;17.81;100.00;101371.00;5208202;28;20575;-74
2022/09/05 05:14:29;;;;;;;2.72;1.92;;;17.50;99.90;;;17.80;100.00;101375.38;5208361;28;20120;-74
2022/09/05 05:17:10;;;;;;;2.70;2.05;;;17.50;99.90;;;17.80;100.00;101371.81;5206576;28;20065;-73
2022/09/05 05:19:47;;;;;;;2.78;2.15;;;17.50;99.90;;;17.80;100.00;101370.09;5207987;28;20041;-74
2022/09/05 05:22:19;;;;;;;2.78;1.90;;;17.50;99.90;;;17.83;100.00;101375.41;5206572;28;20079;-74
2022/09/05 05:24:56;;;;;;;3.00;1.60;;;17.50;99.90;;;17.86;100.00;101372.78;5208297;28;20037;-74
2022/09/05 05:27:42;;;;;;;1.95;1.63;;;17.50;99.90;;;17.91;100.00;101372.88;5206202;28;20056;-75
2022/09/05 05:30:27;;;;;;;3.10;1.92;;;17.60;99.90;;;17.96;100.00;101371.19;5207558;28;20043;-74
2022/09/05 05:33:11;;;;;;;3.30;1.83;;;17.60;99.90;;;17.98;100.00;101372.09;5206332;28;20054;-72
2022/09/05 05:35:48;;;;;;;2.85;2.00;;;17.60;99.90;;;18.02;100.00;101373.91;5207646;28;20406;-72
2022/09/05 05:38:30;;;;;;;2.88;2.03;;;17.70;99.90;;;18.03;100.00;101378.31;5206313;28;20477;-72
2022/09/05 05:41:15;;;;;;;2.75;1.75;;;17.70;99.90;;;18.04;100.00;101374.81;5207550;28;20501;-71
2022/09/05 05:43:49;;;;;;;3.63;1.85;;;17.70;99.90;;;18.09;100.00;101377.53;5206732;28;20586;-72
2022/09/05 05:46:32;;;;;;;2.95;1.80;;;17.70;99.90;;;18.11;100.00;101378.41;5207207;28;20053;-71
2022/09/05 05:49:23;;;;;;;4.03;1.95;;;17.70;99.90;;;18.14;100.00;101387.28;5207465;28;20049;-72
2022/09/05 05:52:39;;;;;;;3.00;1.90;;;17.80;99.90;;;18.16;100.00;101387.28;5207349;28;20402;-72
2022/09/05 05:55:37;;;;;;;2.58;2.00;;;17.80;99.90;;;18.21;100.00;101387.34;5189773;28;20532;-72
2022/09/05 05:58:29;;;;;;;2.38;1.80;;;17.80;99.90;;;18.23;100.00;101388.25;5206628;28;20144;-72
2022/09/05 06:02:00;;;;;;;3.53;1.90;;;17.90;99.90;;;18.29;100.00;101396.25;5207018;28;20398;-73
2022/09/05 06:05:16;;;;;;;2.65;2.03;;;17.90;99.90;;;18.37;100.00;101395.47;5206888;28;20052;-55
2022/09/05 06:08:13;;;;;;;2.78;2.03;;;18.00;99.90;;;18.47;100.00;101391.19;5206999;28;20131;-57
2022/09/05 06:11:23;;;;;;;2.10;1.60;;;18.10;99.90;;;18.61;100.00;101400.16;5206822;28;20060;-57
2022/09/05 06:14:48;;;;;;;2.25;1.80;;;18.20;99.90;;;18.82;100.00;101398.66;5193450;28;20072;-57
2022/09/05 06:18:03;;;;;;;3.25;2.10;;;18.30;99.90;;;19.09;100.00;101398.94;5198195;28;20140;-56
2022/09/05 06:21:31;;;;;;;2.35;1.70;;;18.50;99.90;;;19.52;100.00;101399.31;5187150;28;20060;-60
2022/09/05 06:24:42;;;;;;;4.80;3.05;;;18.90;99.90;;;20.24;100.00;101403.31;5206930;28;20144;-56
2022/09/05 06:27:41;;;;;;;8.05;4.22;;;19.50;99.90;;;20.89;100.00;101409.75;5189108;28;20067;-56
2022/09/05 06:30:20;;;;;;;4.05;2.72;;;20.10;99.90;;;21.45;100.00;101397.47;5206560;28;20045;-54
2022/09/05 06:33:15;;;;;;;3.83;2.35;;;20.70;99.90;;;22.03;100.00;101397.38;5206296;28;20052;-56
2022/09/05 06:36:05;;;;;;;4.68;2.40;;;21.20;99.90;;;22.55;100.00;101395.41;5206532;28;20049;-57
2022/09/05 06:39:03;;;;;;;3.33;2.05;;;21.70;99.90;;;23.07;99.34;101394.25;5206483;28;20042;-55
2022/09/05 06:41:50;;;;;;;3.63;2.10;;;22.20;99.90;;;23.47;96.37;101395.72;5206576;28;20049;-56
2022/09/05 06:44:52;;;;;;;2.97;1.90;;;22.60;99.40;;;23.88;95.01;101397.13;5206421;28;20121;-57
2022/09/05 06:47:27;;;;;;;4.03;1.95;;;23.00;98.70;;;24.21;92.72;101400.31;5206603;28;20115;-55
2022/09/05 06:50:13;;;;;;;3.25;2.20;;;23.30;97.80;;;24.55;90.72;101399.00;5206207;28;20085;-56
2022/09/05 06:53:37;;;;;;;3.75;2.13;;;23.60;96.90;;;24.98;88.98;101405.53;5206319;28;20102;-56
2022/09/05 06:56:34;;;;;;;2.90;1.90;;;24.00;96.40;;;25.33;86.86;101407.66;5195033;28;20058;-57
2022/09/05 07:00:04;;;;;;;3.28;1.80;;;24.40;95.50;;;25.63;84.61;101403.59;5206140;28;20046;-56
2022/09/05 07:02:43;;;;;;;3.08;1.98;;;24.70;94.20;;;25.69;83.56;101404.38;5198847;28;20524;-56
2022/09/05 07:05:33;;;;;;;1.95;1.63;;;24.80;93.30;;;25.92;83.21;101403.97;5206207;28;20077;-56
2022/09/05 07:08:22;;;;;;;2.88;1.55;;;25.10;93.10;;;26.13;81.35;101410.69;5205967;28;20067;-57
2022/09/05 07:10:59;;;;;;;3.00;1.70;;;25.20;92.10;;;26.30;80.10;101412.13;5205776;28;20152;-56
2022/09/05 07:13:38;;;;;;;3.15;2.05;;;25.40;91.40;;;26.28;79.98;101400.56;5205823;28;20049;-56
2022/09/05 07:16:17;;;;;;;3.63;1.83;;;25.40;91.00;;;26.41;80.05;101412.84;5205928;28;20053;-57
2022/09/05 07:19:03;;;;;;;2.70;1.65;;;25.50;90.90;;;26.60;78.86;101414.19;5205844;28;20506;-57
2022/09/05 07:21:46;;;;;;;2.67;1.67;;;25.70;90.60;;;26.75;78.12;101418.34;5205726;28;20049;-57
2022/09/05 07:24:22;;;;;;;2.63;1.70;;;25.80;89.70;;;26.89;76.73;101418.00;5205691;28;20103;-57
2022/09/05 07:26:59;;;;;;;2.92;1.80;;;26.00;88.20;;;26.90;76.72;101411.75;5206018;28;20057;-57
2022/09/05 07:29:35;;;;;;;3.47;1.77;;;26.00;87.50;;;26.87;77.35;101415.38;5205535;28;20041;-56
2022/09/05 07:32:10;;;;;;;2.28;1.52;;;26.10;87.70;;;27.09;76.63;101421.13;5205398;28;20421;-57
2022/09/05 07:34:45;;;;;;;2.58;1.50;;;26.20;87.00;;;27.21;75.82;101422.66;5205502;28;20056;-55
2022/09/05 07:37:22;;;;;;;2.22;1.80;;;26.30;86.10;;;27.24;75.61;101417.19;5205615;28;20494;-57
2022/09/05 07:39:59;;;;;;;1.63;1.48;;;26.40;85.50;;;27.30;75.25;101409.91;5205323;28;20041;-57
2022/09/05 07:42:37;;;;;;;2.58;1.80;;;26.40;84.80;;;27.43;75.10;101417.63;5203940;28;20053;-56
2022/09/05 07:45:13;;;;;;;2.35;1.70;;;26.60;84.50;;;27.65;74.20;101428.66;5205426;28;20051;-55
2022/09/05 07:47:56;;;;;;;2.25;1.70;;;26.70;83.60;;;27.81;72.82;101433.63;5220386;28;20049;-56
2022/09/05 07:50:31;;;;;;;3.35;1.70;;;26.90;82.30;;;28.01;73.08;101424.16;5205179;28;20132;-57
2022/09/05 07:53:04;;;;;;;2.10;1.63;;;27.00;82.00;;;28.24;72.48;101435.13;5205228;28;20502;-57
2022/09/05 07:55:40;;;;;;;3.08;1.60;;;27.20;81.20;;;28.37;71.63;101430.34;5220260;28;20059;-56
2022/09/05 07:58:16;;;;;;;2.67;1.40;;;27.40;80.30;;;28.51;70.84;101429.91;5205038;28;20061;-59
2022/09/05 08:00:53;;;;;;;2.60;1.60;;;27.50;79.50;;;28.72;70.25;101436.44;5205043;28;20038;-57
2022/09/05 08:03:28;;;;;;;3.47;1.80;;;27.70;78.80;;;28.93;69.66;101435.78;5204742;28;20057;-56
2022/09/05 08:06:09;;;;;;;2.50;1.73;;;27.80;77.90;;;29.15;69.18;101436.00;5204978;28;20042;-57
2022/09/05 08:08:52;;;;;;;2.53;1.90;;;28.00;77.10;;;29.40;67.72;101431.56;5205038;28;20049;-57
2022/09/05 08:11:27;;;;;;;2.30;1.90;;;28.20;75.70;;;29.66;67.38;101427.16;5204944;28;20047;-57
2022/09/05 08:14:05;;;;;;;2.08;1.50;;;28.30;75.30;;;29.94;66.54;101410.97;5205127;28;20053;-56
2022/09/05 08:16:41;;;;;;;2.13;1.70;;;28.40;74.90;;;30.32;65.88;101416.75;5204606;28;20572;-56
2022/09/05 08:19:43;;;;;;;2.38;1.50;;;28.60;74.20;;;30.80;64.65;101414.91;5205005;28;20498;-57
2022/09/05 08:22:22;;;;;;;1.80;1.40;;;28.90;74.20;;;31.44;64.16;101415.94;5204494;28;20391;-56
2022/09/05 08:25:02;;;;;;;2.67;1.73;;;29.20;74.00;;;32.17;62.70;101414.53;5204621;28;20049;-56
2022/09/05 08:27:48;;;;;;;1.80;1.30;;;29.50;72.40;;;32.97;60.92;101419.78;5204526;28;20095;-57
2022/09/05 08:30:21;;;;;;;3.65;1.75;;;30.00;71.30;;;33.75;58.65;101414.91;5204533;28;20045;-58
2022/09/05 08:33:00;;;;;;;3.47;1.73;;;30.40;69.30;;;34.68;56.54;101422.53;5204333;28;20050;-57
2022/09/05 08:35:39;;;;;;;1.40;1.20;;;31.10;68.20;;;35.63;54.30;101419.78;5204496;28;20541;-57
2022/09/05 08:38:14;;;;;;;1.60;1.30;;;31.90;65.10;;;36.44;52.70;101422.91;5204503;28;20379;-57
2022/09/05 08:40:55;;;;;;;1.90;1.05;;;32.70;62.70;;;37.03;52.26;101425.44;5204469;28;20037;-59
2022/09/05 08:43:33;;;;;;;2.47;1.33;;;33.40;61.30;;;37.59;50.41;101420.78;5204479;28;20045;-57
2022/09/05 08:46:14;;;;;;;2.33;1.27;;;34.00;59.10;;;37.68;50.10;101415.56;5204433;28;20038;-59
2022/09/05 08:49:10;;;;;;;3.17;1.40;;;34.30;57.90;;;37.92;48.96;101415.72;5203001;28;20514;-59
2022/09/05 08:51:47;;;;;;;2.72;1.30;;;34.60;56.50;;;38.20;48.48;101411.03;5204539;28;20045;-56
2022/09/05 08:54:29;;;;;;;6.32;1.30;;;34.90;55.70;;;38.49;48.37;101411.69;5204340;28;20042;-57
2022/09/05 08:57:12;;;;;;;2.08;1.40;;;35.10;55.20;;;38.23;47.76;101400.81;5204692;28;20049;-57
2022/09/05 08:59:52;;;;;;;3.60;1.20;;;35.20;54.20;;;38.08;47.82;101407.31;5204160;28;20053;-59
2022/09/05 09:03:13;;;;;;;2.10;1.15;;;35.20;54.60;;;37.84;47.88;101399.06;5219572;28;20072;-59
2022/09/05 09:06:51;;;;;;;2.92;1.08;;;35.20;53.60;;;37.41;48.63;101393.84;5190772;28;20062;-57
2022/09/05 09:09:37;;;;;;;3.15;1.48;;;35.10;53.70;;;36.93;48.66;101398.03;5203889;28;20041;-56
2022/09/05 09:12:28;;;;;;;2.42;1.30;;;34.90;53.40;;;36.16;48.83;101399.34;5204135;28;20512;-56
2022/09/05 09:15:02;;;;;;;1.83;1.30;;;34.50;53.00;;;35.53;49.89;101388.75;5204139;28;20041;-56
2022/09/05 09:17:43;;;;;;;1.02;0.90;;;34.20;53.70;;;35.00;51.02;101384.66;5204181;28;20055;-54
2022/09/05 09:20:30;;;;;;;3.10;1.55;;;33.80;54.20;;;34.55;51.62;101386.28;5204011;28;20050;-57
2022/09/05 09:23:06;;;;;;;1.45;1.33;;;33.40;54.50;;;34.03;51.49;101375.59;5204099;28;20049;-56
2022/09/05 09:25:46;;;;;;;1.83;1.20;;;33.10;54.50;;;33.73;52.28;101378.09;5203987;28;20499;-56
2022/09/05 09:28:42;;;;;;;1.52;1.15;;;32.80;55.20;;;33.58;52.34;101366.28;5203955;28;20037;-56
2022/09/05 09:31:27;;;;;;;1.65;1.23;;;32.60;55.20;;;33.59;52.98;101365.31;5204146;28;20053;-56
2022/09/05 09:34:36;;;;;;;1.85;1.15;;;32.50;55.80;;;33.42;52.12;101365.31;5204066;28;20128;-56
2022/09/05 09:37:46;;;;;;;2.13;1.33;;;32.40;55.10;;;33.27;52.16;101358.84;5195168;28;20061;-55
2022/09/05 09:41:08;;;;;;;1.25;1.15;;;32.30;55.10;;;33.14;52.99;101353.19;5207546;28;20053;-57
2022/09/05 09:44:44;;;;;;;2.20;1.40;;;32.10;55.50;;;33.07;52.42;101343.66;5207667;28;20041;-56
2022/09/05 09:47:36;;;;;;;2.33;1.20;;;32.10;55.50;;;33.22;52.65;101344.69;5207457;28;20103;-55
2022/09/05 09:50:34;;;;;;;1.40;1.10;;;32.10;55.70;;;33.23;52.87;101359.94;5207360;28;20128;-58
2022/09/05 09:53:41;;;;;;;1.33;1.20;;;32.10;55.70;;;33.29;51.31;101356.94;5207449;28;20052;-56
2022/09/05 09:56:53;;;;;;;1.30;1.20;;;32.10;54.70;;;33.35;50.73;101361.16;5197235;28;20518;-56
2022/09/05 10:00:07;;;;;;;3.72;1.20;;;32.10;54.20;;;33.39;48.53;101357.38;5207352;28;20384;-56
2022/09/05 10:03:16;;;;;;;1.98;1.33;;;32.20;52.70;;;33.39;48.38;101351.97;5207192;28;20060;-57
2022/09/05 10:06:10;;;;;;;1.92;1.15;;;32.20;52.30;;;33.39;48.97;101351.97;5207313;28;20119;-57
2022/09/05 10:09:09;;;;;;;2.03;1.10;;;32.20;52.60;;;33.51;48.19;101350.44;5206953;28;20053;-56
2022/09/05 10:12:19;;;;;;;1.55;1.00;;;32.30;52.20;;;33.58;46.84;101352.78;5207035;28;20048;-56
2022/09/05 10:15:12;;;;;;;1.48;1.00;;;32.30;50.90;;;33.62;44.88;101343.53;5189799;28;20572;-57
2022/09/05 10:18:36;;;;;;;;;;;32.40;49.50;;;33.62;45.69;101338.13;5207452;28;20037;-57
2022/09/05 10:21:32;;;;;;;1.15;0.90;;;32.40;49.90;;;33.61;45.10;101341.78;5203469;28;19921;-56
2022/09/05 10:24:37;;;;;;;2.17;1.27;;;32.40;49.60;;;33.59;44.81;101332.88;5205495;28;20096;-57
2022/09/05 10:27:51;;;;;;;1.52;1.20;;;32.40;49.20;;;33.67;44.52;101335.19;5201896;28;20140;-56
2022/09/05 10:30:32;;;;;;;1.67;1.15;;;32.50;49.10;;;33.77;45.27;101330.13;5206552;28;20056;-56
2022/09/05 10:33:28;;;;;;;1.58;1.13;;;32.50;49.70;;;33.71;43.63;101332.25;5206670;28;20057;-56
2022/09/05 10:36:21;;;;;;;1.38;0.98;;;32.50;48.20;;;33.66;44.93;101322.63;5206650;28;20146;-56
2022/09/05 10:39:07;;;;;;;1.88;1.10;;;32.40;49.10;;;33.81;45.65;101321.78;5208173;28;20050;-57
2022/09/05 10:41:49;;;;;;;1.00;0.90;;;32.60;50.00;;;33.95;45.58;101329.19;5207857;28;20072;-56
2022/09/05 10:44:34;;;;;;;1.45;1.10;;;32.60;49.70;;;34.01;45.33;101321.59;5208073;28;20045;-56
2022/09/05 10:47:22;;;;;;;0.80;0.80;;;32.70;49.40;;;34.13;45.31;101324.59;5207846;28;20048;-56
2022/09/05 10:50:06;;;;;;;0.75;0.75;;;32.80;49.50;;;34.06;44.44;101321.38;5207850;28;20049;-56
2022/09/05 10:52:56;;;;;;;1.45;0.80;;;32.80;48.70;;;33.54;44.91;101313.34;5207646;28;20124;-56
2022/09/05 10:55:37;;;;;;;1.88;1.02;;;32.60;48.90;;;33.03;45.88;101309.66;5207828;28;20045;-54
2022/09/05 10:58:24;;;;;;;1.00;0.90;;;32.10;49.60;;;32.96;46.71;101301.94;5207753;28;20127;-55
2022/09/05 11:01:05;;;;;;;1.25;1.00;;;32.00;50.50;;;33.01;47.05;101295.38;5206321;28;20076;-57
2022/09/05 11:03:48;;;;;;;1.75;0.82;;;31.90;50.80;;;32.82;47.55;101297.22;5206169;28;20414;-57
2022/09/05 11:06:34;;;;;;;1.27;1.05;;;31.80;51.10;;;32.72;46.40;101290.50;5266895;22;20095;-61
2022/09/05 11:09:11;;;;;;;1.45;1.20;;;31.70;50.90;;;32.77;46.25;101289.34;5216153;28;20037;-62
2022/09/05 11:11:47;;;;;;;1.63;1.10;;;31.70;50.30;;;32.94;46.89;101283.13;5225746;28;20122;-62
2022/09/05 11:14:48;;;;;;;1.38;1.10;;;31.80;50.60;;;33.21;47.39;101279.00;5225798;28;20124;-62
2022/09/05 11:17:32;;;;;;;0.98;0.90;;;32.00;51.20;;;33.44;47.12;101275.09;5225254;28;20052;-62
2022/09/05 11:20:49;;;;;;;1.00;0.90;;;32.20;51.00;;;33.58;46.37;101273.47;5225694;28;20483;-61
2022/09/05 11:23:28;;;;;;;1.25;0.95;;;32.30;50.40;;;33.69;45.78;101268.38;5225870;28;20045;-62
2022/09/05 11:26:06;;;;;;;1.08;0.93;;;32.40;49.90;;;33.76;45.48;101264.38;5225324;28;20044;-61
2022/09/05 11:28:46;;;;;;;1.25;1.00;;;32.50;49.40;;;33.86;44.60;101264.78;5225257;28;20467;-61
2022/09/05 11:31:23;;;;;;;1.20;0.90;;;32.60;49.00;;;33.84;44.19;101266.66;5225192;28;20421;-62
2022/09/05 11:34:54;;;;;;;1.45;1.20;;;32.60;48.60;;;33.77;44.20;101259.84;5225548;28;20049;-63
2022/09/05 11:37:42;;;;;;;;;;;32.60;48.50;;;33.63;44.02;101269.59;5194363;28;20063;-61
2022/09/05 11:40:43;;;;;;;1.00;1.00;;;32.60;48.90;;;33.63;44.58;101269.59;5225319;28;19925;-61
2022/09/05 11:44:04;;;;;;;1.23;1.10;;;32.60;48.80;;;33.50;43.98;101257.69;5225262;28;20055;-62
2022/09/05 11:46:42;;;;;;;1.88;1.08;;;32.50;48.30;;;33.47;44.48;101260.56;5224775;28;20051;-61